sensor_id;sensor_type;location;lat;lon;timestamp;P1;durP1;ratioP1;P2;durP2;ratioP2
44428;SDS011;30134;47.866;-4.222;2023-08-06T00:01:18;12.35;;;3.15;;
44428;SDS011;30134;47.866;-4.222;2023-08-06T00:03:46;7.25;;;2.85;;
44428;SDS011;30134;47.866;-4.222;2023-08-06T00:06:12;7.20;;;3.05;;
44428;SDS011;30134;47.866;-4.222;2023-08-06T00:08:38;6.32;;;3.00;;
44428;SDS011;30134;47.866;-4.222;2023-08-06T00:11:04;9.65;;;2.80;;
44428;SDS011;30134;47.866;-4.222;2023-08-06T00:13:30;9.35;;;3.15;;
44428;SDS011;30134;47.866;-4.222;2023-08-06T00:16:07;10.18;;;2.92;;
44428;SDS011;30134;47.866;-4.222;2023-08-06T00:18:38;10.65;;;3.25;;
44428;SDS011;30134;47.866;-4.222;2023-08-06T00:21:07;8.60;;;2.88;;
44428;SDS011;30134;47.866;-4.222;2023-08-06T00:23:33;9.45;;;3.22;;
44428;SDS011;30134;47.866;-4.222;2023-08-06T00:25:59;7.25;;;2.38;;
44428;SDS011;30134;47.866;-4.222;2023-08-06T00:28:25;10.70;;;3.28;;
44428;SDS011;30134;47.866;-4.222;2023-08-06T00:30:54;10.75;;;3.22;;
44428;SDS011;30134;47.866;-4.222;2023-08-06T00:33:24;8.70;;;2.80;;
44428;SDS011;30134;47.866;-4.222;2023-08-06T00:35:50;10.20;;;3.20;;
44428;SDS011;30134;47.866;-4.222;2023-08-06T00:38:16;8.05;;;3.00;;
44428;SDS011;30134;47.866;-4.222;2023-08-06T00:40:42;11.55;;;3.20;;
44428;SDS011;30134;47.866;-4.222;2023-08-06T00:43:08;9.95;;;3.08;;
44428;SDS011;30134;47.866;-4.222;2023-08-06T00:45:35;8.98;;;2.83;;
44428;SDS011;30134;47.866;-4.222;2023-08-06T00:48:02;8.95;;;3.05;;
44428;SDS011;30134;47.866;-4.222;2023-08-06T00:50:31;10.70;;;2.90;;
44428;SDS011;30134;47.866;-4.222;2023-08-06T00:52:57;14.00;;;3.83;;
44428;SDS011;30134;47.866;-4.222;2023-08-06T00:55:24;9.70;;;2.75;;
44428;SDS011;30134;47.866;-4.222;2023-08-06T00:57:50;11.43;;;3.38;;
44428;SDS011;30134;47.866;-4.222;2023-08-06T01:00:18;9.10;;;2.95;;
44428;SDS011;30134;47.866;-4.222;2023-08-06T01:02:45;10.13;;;3.15;;
44428;SDS011;30134;47.866;-4.222;2023-08-06T01:05:13;11.27;;;3.13;;
44428;SDS011;30134;47.866;-4.222;2023-08-06T01:13:37;10.50;;;3.25;;
44428;SDS011;30134;47.866;-4.222;2023-08-06T01:16:15;10.18;;;3.03;;
44428;SDS011;30134;47.866;-4.222;2023-08-06T01:18:44;10.07;;;2.88;;
44428;SDS011;30134;47.866;-4.222;2023-08-06T01:21:17;7.75;;;2.72;;
44428;SDS011;30134;47.866;-4.222;2023-08-06T01:23:44;10.20;;;3.20;;
44428;SDS011;30134;47.866;-4.222;2023-08-06T01:26:30;8.50;;;3.08;;
44428;SDS011;30134;47.866;-4.222;2023-08-06T01:29:20;7.70;;;2.92;;
44428;SDS011;30134;47.866;-4.222;2023-08-06T01:31:56;9.07;;;3.22;;
44428;SDS011;30134;47.866;-4.222;2023-08-06T01:34:24;10.07;;;3.22;;
44428;SDS011;30134;47.866;-4.222;2023-08-06T01:36:53;12.18;;;3.47;;
44428;SDS011;30134;47.866;-4.222;2023-08-06T01:39:20;10.32;;;3.53;;
44428;SDS011;30134;47.866;-4.222;2023-08-06T01:41:47;6.75;;;3.03;;
44428;SDS011;30134;47.866;-4.222;2023-08-06T01:44:14;10.80;;;3.40;;
44428;SDS011;30134;47.866;-4.222;2023-08-06T01:46:41;9.73;;;3.20;;
44428;SDS011;30134;47.866;-4.222;2023-08-06T01:49:07;8.25;;;2.70;;
44428;SDS011;30134;47.866;-4.222;2023-08-06T01:51:33;7.50;;;2.97;;
44428;SDS011;30134;47.866;-4.222;2023-08-06T01:53:59;8.40;;;2.90;;
44428;SDS011;30134;47.866;-4.222;2023-08-06T01:56:25;8.40;;;2.90;;
44428;SDS011;30134;47.866;-4.222;2023-08-06T01:58:54;8.73;;;3.00;;
44428;SDS011;30134;47.866;-4.222;2023-08-06T02:01:20;9.43;;;2.90;;
44428;SDS011;30134;47.866;-4.222;2023-08-06T02:03:47;8.98;;;3.20;;
44428;SDS011;30134;47.866;-4.222;2023-08-06T02:06:13;9.45;;;3.03;;
44428;SDS011;30134;47.866;-4.222;2023-08-06T02:08:39;12.18;;;3.75;;
44428;SDS011;30134;47.866;-4.222;2023-08-06T02:11:05;10.02;;;3.15;;
44428;SDS011;30134;47.866;-4.222;2023-08-06T02:13:34;6.68;;;2.83;;
44428;SDS011;30134;47.866;-4.222;2023-08-06T02:16:00;7.80;;;3.13;;
44428;SDS011;30134;47.866;-4.222;2023-08-06T02:18:26;7.85;;;3.10;;
44428;SDS011;30134;47.866;-4.222;2023-08-06T02:20:55;8.90;;;3.35;;
44428;SDS011;30134;47.866;-4.222;2023-08-06T02:23:23;9.80;;;3.15;;
44428;SDS011;30134;47.866;-4.222;2023-08-06T02:26:02;7.53;;;3.00;;
44428;SDS011;30134;47.866;-4.222;2023-08-06T02:28:30;9.30;;;3.42;;
44428;SDS011;30134;47.866;-4.222;2023-08-06T02:30:57;11.20;;;3.58;;
44428;SDS011;30134;47.866;-4.222;2023-08-06T02:33:23;9.55;;;3.30;;
44428;SDS011;30134;47.866;-4.222;2023-08-06T02:35:58;7.07;;;2.95;;
44428;SDS011;30134;47.866;-4.222;2023-08-06T02:38:26;10.10;;;3.53;;
44428;SDS011;30134;47.866;-4.222;2023-08-06T02:40:52;9.82;;;3.58;;
44428;SDS011;30134;47.866;-4.222;2023-08-06T02:43:18;9.43;;;3.20;;
44428;SDS011;30134;47.866;-4.222;2023-08-06T02:45:44;8.15;;;3.08;;
44428;SDS011;30134;47.866;-4.222;2023-08-06T02:48:10;11.23;;;3.28;;
44428;SDS011;30134;47.866;-4.222;2023-08-06T02:50:40;8.82;;;3.28;;
44428;SDS011;30134;47.866;-4.222;2023-08-06T02:53:07;9.40;;;3.22;;
44428;SDS011;30134;47.866;-4.222;2023-08-06T02:55:34;8.52;;;3.10;;
44428;SDS011;30134;47.866;-4.222;2023-08-06T02:58:01;9.70;;;3.13;;
44428;SDS011;30134;47.866;-4.222;2023-08-06T03:00:27;8.45;;;3.22;;
44428;SDS011;30134;47.866;-4.222;2023-08-06T03:02:54;9.25;;;3.10;;
44428;SDS011;30134;47.866;-4.222;2023-08-06T03:05:20;10.10;;;3.67;;
44428;SDS011;30134;47.866;-4.222;2023-08-06T03:07:46;10.75;;;3.50;;
44428;SDS011;30134;47.866;-4.222;2023-08-06T03:10:12;8.18;;;3.20;;
44428;SDS011;30134;47.866;-4.222;2023-08-06T03:12:38;8.68;;;3.30;;
44428;SDS011;30134;47.866;-4.222;2023-08-06T03:15:04;9.95;;;3.67;;
44428;SDS011;30134;47.866;-4.222;2023-08-06T03:17:31;8.32;;;3.22;;
44428;SDS011;30134;47.866;-4.222;2023-08-06T03:19:57;7.72;;;3.50;;
44428;SDS011;30134;47.866;-4.222;2023-08-06T03:22:23;9.48;;;3.70;;
44428;SDS011;30134;47.866;-4.222;2023-08-06T03:24:52;6.40;;;3.30;;
44428;SDS011;30134;47.866;-4.222;2023-08-06T03:27:18;7.30;;;2.90;;
44428;SDS011;30134;47.866;-4.222;2023-08-06T03:29:44;11.18;;;4.07;;
44428;SDS011;30134;47.866;-4.222;2023-08-06T03:32:10;8.48;;;3.28;;
44428;SDS011;30134;47.866;-4.222;2023-08-06T03:34:36;9.00;;;3.25;;
44428;SDS011;30134;47.866;-4.222;2023-08-06T03:37:02;8.93;;;3.45;;
44428;SDS011;30134;47.866;-4.222;2023-08-06T03:39:29;8.50;;;3.30;;
44428;SDS011;30134;47.866;-4.222;2023-08-06T03:41:55;9.88;;;3.28;;
44428;SDS011;30134;47.866;-4.222;2023-08-06T03:44:21;8.50;;;3.60;;
44428;SDS011;30134;47.866;-4.222;2023-08-06T03:46:47;7.55;;;3.10;;
44428;SDS011;30134;47.866;-4.222;2023-08-06T03:49:13;9.02;;;3.50;;
44428;SDS011;30134;47.866;-4.222;2023-08-06T03:51:39;12.55;;;3.50;;
44428;SDS011;30134;47.866;-4.222;2023-08-06T03:54:05;6.75;;;3.30;;
44428;SDS011;30134;47.866;-4.222;2023-08-06T03:56:31;7.28;;;3.13;;
44428;SDS011;30134;47.866;-4.222;2023-08-06T03:58:57;8.50;;;3.60;;
44428;SDS011;30134;47.866;-4.222;2023-08-06T04:01:23;8.43;;;3.33;;
44428;SDS011;30134;47.866;-4.222;2023-08-06T04:03:49;10.27;;;3.53;;
44428;SDS011;30134;47.866;-4.222;2023-08-06T04:06:15;9.43;;;3.38;;
44428;SDS011;30134;47.866;-4.222;2023-08-06T04:08:41;9.85;;;2.92;;
44428;SDS011;30134;47.866;-4.222;2023-08-06T04:11:08;8.63;;;3.20;;
44428;SDS011;30134;47.866;-4.222;2023-08-06T04:13:34;9.52;;;3.10;;
44428;SDS011;30134;47.866;-4.222;2023-08-06T04:16:01;9.82;;;3.33;;
44428;SDS011;30134;47.866;-4.222;2023-08-06T04:18:30;8.95;;;3.50;;
44428;SDS011;30134;47.866;-4.222;2023-08-06T04:20:56;8.15;;;3.40;;
44428;SDS011;30134;47.866;-4.222;2023-08-06T04:23:23;7.95;;;3.47;;
44428;SDS011;30134;47.866;-4.222;2023-08-06T04:25:49;9.48;;;3.40;;
44428;SDS011;30134;47.866;-4.222;2023-08-06T04:28:16;6.60;;;2.90;;
44428;SDS011;30134;47.866;-4.222;2023-08-06T04:30:42;9.43;;;3.38;;
44428;SDS011;30134;47.866;-4.222;2023-08-06T04:33:08;10.38;;;3.58;;
44428;SDS011;30134;47.866;-4.222;2023-08-06T04:35:34;8.82;;;3.33;;
44428;SDS011;30134;47.866;-4.222;2023-08-06T04:38:00;6.63;;;3.00;;
44428;SDS011;30134;47.866;-4.222;2023-08-06T04:40:26;8.65;;;3.47;;
44428;SDS011;30134;47.866;-4.222;2023-08-06T04:42:52;6.80;;;2.95;;
44428;SDS011;30134;47.866;-4.222;2023-08-06T04:45:18;6.93;;;2.97;;
44428;SDS011;30134;47.866;-4.222;2023-08-06T04:47:44;7.10;;;3.03;;
44428;SDS011;30134;47.866;-4.222;2023-08-06T04:50:13;9.60;;;3.42;;
44428;SDS011;30134;47.866;-4.222;2023-08-06T04:52:39;7.22;;;3.10;;
44428;SDS011;30134;47.866;-4.222;2023-08-06T04:55:05;10.25;;;3.42;;
44428;SDS011;30134;47.866;-4.222;2023-08-06T04:57:31;9.48;;;3.67;;
44428;SDS011;30134;47.866;-4.222;2023-08-06T04:59:57;11.07;;;3.67;;
44428;SDS011;30134;47.866;-4.222;2023-08-06T05:02:23;8.23;;;3.40;;
44428;SDS011;30134;47.866;-4.222;2023-08-06T05:04:50;8.52;;;3.65;;
44428;SDS011;30134;47.866;-4.222;2023-08-06T05:07:16;7.68;;;3.28;;
44428;SDS011;30134;47.866;-4.222;2023-08-06T05:09:45;7.93;;;3.08;;
44428;SDS011;30134;47.866;-4.222;2023-08-06T05:12:11;9.82;;;3.85;;
44428;SDS011;30134;47.866;-4.222;2023-08-06T05:14:37;6.75;;;3.08;;
44428;SDS011;30134;47.866;-4.222;2023-08-06T05:17:03;11.57;;;3.83;;
44428;SDS011;30134;47.866;-4.222;2023-08-06T05:19:29;8.13;;;3.00;;
44428;SDS011;30134;47.866;-4.222;2023-08-06T05:21:58;8.25;;;3.30;;
44428;SDS011;30134;47.866;-4.222;2023-08-06T05:24:26;11.32;;;3.70;;
44428;SDS011;30134;47.866;-4.222;2023-08-06T05:26:52;9.38;;;3.80;;
44428;SDS011;30134;47.866;-4.222;2023-08-06T05:29:18;8.05;;;3.80;;
44428;SDS011;30134;47.866;-4.222;2023-08-06T05:31:44;11.48;;;4.10;;
44428;SDS011;30134;47.866;-4.222;2023-08-06T05:34:10;11.50;;;4.43;;
44428;SDS011;30134;47.866;-4.222;2023-08-06T05:36:36;11.13;;;4.68;;
44428;SDS011;30134;47.866;-4.222;2023-08-06T05:39:02;9.30;;;4.10;;
44428;SDS011;30134;47.866;-4.222;2023-08-06T05:41:28;10.30;;;4.30;;
44428;SDS011;30134;47.866;-4.222;2023-08-06T05:43:54;10.20;;;4.43;;
44428;SDS011;30134;47.866;-4.222;2023-08-06T05:46:21;11.95;;;4.30;;
44428;SDS011;30134;47.866;-4.222;2023-08-06T05:48:50;13.20;;;5.20;;
44428;SDS011;30134;47.866;-4.222;2023-08-06T05:51:16;11.93;;;4.50;;
44428;SDS011;30134;47.866;-4.222;2023-08-06T05:53:42;11.98;;;5.03;;
44428;SDS011;30134;47.866;-4.222;2023-08-06T05:56:08;13.07;;;4.97;;
44428;SDS011;30134;47.866;-4.222;2023-08-06T05:58:34;14.95;;;5.90;;
44428;SDS011;30134;47.866;-4.222;2023-08-06T06:01:00;10.68;;;4.50;;
44428;SDS011;30134;47.866;-4.222;2023-08-06T06:03:27;12.98;;;5.03;;
44428;SDS011;30134;47.866;-4.222;2023-08-06T06:05:53;13.70;;;4.97;;
44428;SDS011;30134;47.866;-4.222;2023-08-06T06:08:19;12.63;;;4.85;;
44428;SDS011;30134;47.866;-4.222;2023-08-06T06:10:45;11.80;;;5.15;;
44428;SDS011;30134;47.866;-4.222;2023-08-06T06:13:11;11.13;;;4.45;;
44428;SDS011;30134;47.866;-4.222;2023-08-06T06:15:37;13.50;;;4.90;;
44428;SDS011;30134;47.866;-4.222;2023-08-06T06:18:03;14.15;;;5.15;;
44428;SDS011;30134;47.866;-4.222;2023-08-06T06:20:31;10.50;;;4.55;;
44428;SDS011;30134;47.866;-4.222;2023-08-06T06:22:58;14.88;;;5.40;;
44428;SDS011;30134;47.866;-4.222;2023-08-06T06:25:24;12.48;;;5.22;;
44428;SDS011;30134;47.866;-4.222;2023-08-06T06:27:50;14.52;;;4.75;;
44428;SDS011;30134;47.866;-4.222;2023-08-06T06:30:17;10.43;;;4.75;;
44428;SDS011;30134;47.866;-4.222;2023-08-06T06:32:43;14.38;;;4.82;;
44428;SDS011;30134;47.866;-4.222;2023-08-06T06:35:09;12.95;;;4.90;;
44428;SDS011;30134;47.866;-4.222;2023-08-06T06:37:35;12.88;;;4.82;;
44428;SDS011;30134;47.866;-4.222;2023-08-06T06:40:01;12.77;;;4.60;;
44428;SDS011;30134;47.866;-4.222;2023-08-06T06:42:29;13.75;;;5.38;;
44428;SDS011;30134;47.866;-4.222;2023-08-06T06:44:55;11.38;;;5.38;;
44428;SDS011;30134;47.866;-4.222;2023-08-06T06:47:24;11.65;;;4.80;;
44428;SDS011;30134;47.866;-4.222;2023-08-06T06:49:50;9.38;;;4.78;;
44428;SDS011;30134;47.866;-4.222;2023-08-06T06:52:16;13.57;;;5.28;;
44428;SDS011;30134;47.866;-4.222;2023-08-06T06:54:42;11.32;;;4.50;;
44428;SDS011;30134;47.866;-4.222;2023-08-06T06:57:08;9.80;;;4.05;;
44428;SDS011;30134;47.866;-4.222;2023-08-06T06:59:35;13.05;;;4.40;;
44428;SDS011;30134;47.866;-4.222;2023-08-06T07:02:01;13.07;;;5.03;;
44428;SDS011;30134;47.866;-4.222;2023-08-06T07:04:27;13.75;;;4.50;;
44428;SDS011;30134;47.866;-4.222;2023-08-06T07:06:57;13.77;;;4.93;;
44428;SDS011;30134;47.866;-4.222;2023-08-06T07:09:23;11.85;;;4.53;;
44428;SDS011;30134;47.866;-4.222;2023-08-06T07:11:49;10.18;;;3.80;;
44428;SDS011;30134;47.866;-4.222;2023-08-06T07:14:19;10.90;;;4.68;;
44428;SDS011;30134;47.866;-4.222;2023-08-06T07:16:45;10.52;;;4.28;;
44428;SDS011;30134;47.866;-4.222;2023-08-06T07:19:11;11.85;;;4.35;;
44428;SDS011;30134;47.866;-4.222;2023-08-06T07:21:37;10.85;;;3.90;;
44428;SDS011;30134;47.866;-4.222;2023-08-06T07:24:03;10.90;;;3.95;;
44428;SDS011;30134;47.866;-4.222;2023-08-06T07:26:36;12.07;;;3.88;;
44428;SDS011;30134;47.866;-4.222;2023-08-06T07:29:03;8.40;;;3.85;;
44428;SDS011;30134;47.866;-4.222;2023-08-06T07:31:29;9.25;;;4.28;;
44428;SDS011;30134;47.866;-4.222;2023-08-06T07:33:55;12.82;;;4.45;;
44428;SDS011;30134;47.866;-4.222;2023-08-06T07:36:21;12.48;;;4.43;;
44428;SDS011;30134;47.866;-4.222;2023-08-06T07:38:47;12.90;;;4.65;;
44428;SDS011;30134;47.866;-4.222;2023-08-06T07:41:16;9.65;;;4.05;;
44428;SDS011;30134;47.866;-4.222;2023-08-06T07:43:43;14.52;;;4.30;;
44428;SDS011;30134;47.866;-4.222;2023-08-06T07:46:09;8.52;;;3.97;;
44428;SDS011;30134;47.866;-4.222;2023-08-06T07:48:35;12.93;;;3.88;;
44428;SDS011;30134;47.866;-4.222;2023-08-06T07:51:01;8.90;;;4.10;;
44428;SDS011;30134;47.866;-4.222;2023-08-06T07:53:29;8.13;;;3.47;;
44428;SDS011;30134;47.866;-4.222;2023-08-06T07:55:56;11.98;;;4.30;;
44428;SDS011;30134;47.866;-4.222;2023-08-06T07:58:23;12.35;;;3.60;;
44428;SDS011;30134;47.866;-4.222;2023-08-06T08:00:50;11.73;;;4.15;;
44428;SDS011;30134;47.866;-4.222;2023-08-06T08:03:17;11.85;;;3.55;;
44428;SDS011;30134;47.866;-4.222;2023-08-06T08:05:44;17.13;;;3.95;;
44428;SDS011;30134;47.866;-4.222;2023-08-06T08:08:10;23.60;;;4.05;;
44428;SDS011;30134;47.866;-4.222;2023-08-06T08:10:36;10.98;;;3.13;;
44428;SDS011;30134;47.866;-4.222;2023-08-06T08:13:03;14.15;;;3.83;;
44428;SDS011;30134;47.866;-4.222;2023-08-06T08:15:30;14.32;;;4.38;;
44428;SDS011;30134;47.866;-4.222;2023-08-06T08:17:57;11.75;;;3.72;;
44428;SDS011;30134;47.866;-4.222;2023-08-06T08:20:24;15.65;;;3.67;;
44428;SDS011;30134;47.866;-4.222;2023-08-06T08:22:51;12.90;;;3.67;;
44428;SDS011;30134;47.866;-4.222;2023-08-06T08:25:17;11.25;;;3.38;;
44428;SDS011;30134;47.866;-4.222;2023-08-06T08:27:44;11.10;;;3.20;;
44428;SDS011;30134;47.866;-4.222;2023-08-06T08:30:10;10.50;;;3.13;;
44428;SDS011;30134;47.866;-4.222;2023-08-06T08:32:36;15.98;;;3.75;;
44428;SDS011;30134;47.866;-4.222;2023-08-06T08:35:02;14.85;;;3.33;;
44428;SDS011;30134;47.866;-4.222;2023-08-06T08:37:29;9.63;;;3.22;;
44428;SDS011;30134;47.866;-4.222;2023-08-06T08:39:55;9.27;;;2.85;;
44428;SDS011;30134;47.866;-4.222;2023-08-06T08:42:21;10.07;;;2.97;;
44428;SDS011;30134;47.866;-4.222;2023-08-06T08:44:47;8.60;;;3.20;;
44428;SDS011;30134;47.866;-4.222;2023-08-06T08:47:13;12.23;;;2.97;;
44428;SDS011;30134;47.866;-4.222;2023-08-06T08:49:41;11.15;;;2.95;;
44428;SDS011;30134;47.866;-4.222;2023-08-06T08:52:08;11.43;;;3.35;;
44428;SDS011;30134;47.866;-4.222;2023-08-06T08:54:38;11.32;;;3.20;;
44428;SDS011;30134;47.866;-4.222;2023-08-06T08:57:05;14.05;;;3.40;;
44428;SDS011;30134;47.866;-4.222;2023-08-06T08:59:32;15.75;;;3.70;;
44428;SDS011;30134;47.866;-4.222;2023-08-06T09:02:00;9.43;;;3.35;;
44428;SDS011;30134;47.866;-4.222;2023-08-06T09:04:27;11.55;;;3.10;;
44428;SDS011;30134;47.866;-4.222;2023-08-06T09:06:58;9.05;;;2.72;;
44428;SDS011;30134;47.866;-4.222;2023-08-06T09:09:26;12.50;;;3.40;;
44428;SDS011;30134;47.866;-4.222;2023-08-06T09:12:00;12.07;;;2.83;;
44428;SDS011;30134;47.866;-4.222;2023-08-06T09:14:31;15.15;;;2.95;;
44428;SDS011;30134;47.866;-4.222;2023-08-06T09:16:57;7.72;;;2.95;;
44428;SDS011;30134;47.866;-4.222;2023-08-06T09:19:23;8.85;;;2.63;;
44428;SDS011;30134;47.866;-4.222;2023-08-06T09:21:50;9.13;;;2.65;;
44428;SDS011;30134;47.866;-4.222;2023-08-06T09:24:17;11.02;;;2.75;;
44428;SDS011;30134;47.866;-4.222;2023-08-06T09:26:43;9.10;;;2.88;;
44428;SDS011;30134;47.866;-4.222;2023-08-06T09:29:10;13.95;;;3.40;;
44428;SDS011;30134;47.866;-4.222;2023-08-06T09:34:17;12.15;;;2.90;;
44428;SDS011;30134;47.866;-4.222;2023-08-06T09:36:47;14.07;;;3.28;;
44428;SDS011;30134;47.866;-4.222;2023-08-06T09:39:16;8.93;;;2.70;;
44428;SDS011;30134;47.866;-4.222;2023-08-06T09:41:56;11.35;;;3.28;;
44428;SDS011;30134;47.866;-4.222;2023-08-06T09:44:24;7.53;;;2.70;;
44428;SDS011;30134;47.866;-4.222;2023-08-06T09:46:55;10.90;;;2.70;;
44428;SDS011;30134;47.866;-4.222;2023-08-06T09:51:58;8.70;;;2.92;;
44428;SDS011;30134;47.866;-4.222;2023-08-06T09:54:26;9.80;;;2.85;;
44428;SDS011;30134;47.866;-4.222;2023-08-06T09:56:59;10.43;;;3.28;;
44428;SDS011;30134;47.866;-4.222;2023-08-06T09:59:26;10.23;;;2.70;;
44428;SDS011;30134;47.866;-4.222;2023-08-06T10:01:53;7.25;;;2.42;;
44428;SDS011;30134;47.866;-4.222;2023-08-06T10:04:23;6.22;;;2.22;;
44428;SDS011;30134;47.866;-4.222;2023-08-06T10:06:49;5.45;;;2.22;;
44428;SDS011;30134;47.866;-4.222;2023-08-06T10:09:15;7.78;;;2.60;;
44428;SDS011;30134;47.866;-4.222;2023-08-06T10:11:47;7.07;;;3.17;;
44428;SDS011;30134;47.866;-4.222;2023-08-06T10:14:24;7.57;;;2.70;;
44428;SDS011;30134;47.866;-4.222;2023-08-06T10:17:00;7.97;;;2.72;;
44428;SDS011;30134;47.866;-4.222;2023-08-06T10:19:27;6.50;;;2.55;;
44428;SDS011;30134;47.866;-4.222;2023-08-06T10:22:10;7.50;;;2.80;;
44428;SDS011;30134;47.866;-4.222;2023-08-06T10:28:08;10.90;;;2.80;;
44428;SDS011;30134;47.866;-4.222;2023-08-06T10:32:56;9.45;;;2.55;;
44428;SDS011;30134;47.866;-4.222;2023-08-06T10:38:19;10.88;;;3.08;;
44428;SDS011;30134;47.866;-4.222;2023-08-06T10:41:01;9.77;;;2.90;;
44428;SDS011;30134;47.866;-4.222;2023-08-06T10:45:58;9.60;;;3.03;;
44428;SDS011;30134;47.866;-4.222;2023-08-06T10:48:36;14.63;;;3.63;;
44428;SDS011;30134;47.866;-4.222;2023-08-06T10:51:07;7.65;;;2.67;;
44428;SDS011;30134;47.866;-4.222;2023-08-06T10:53:35;10.00;;;2.78;;
44428;SDS011;30134;47.866;-4.222;2023-08-06T10:56:11;11.35;;;3.08;;
44428;SDS011;30134;47.866;-4.222;2023-08-06T10:58:38;11.50;;;2.65;;
44428;SDS011;30134;47.866;-4.222;2023-08-06T11:01:05;7.45;;;2.67;;
44428;SDS011;30134;47.866;-4.222;2023-08-06T11:03:32;9.10;;;2.88;;
44428;SDS011;30134;47.866;-4.222;2023-08-06T11:05:59;11.18;;;3.00;;
44428;SDS011;30134;47.866;-4.222;2023-08-06T11:08:32;6.90;;;2.40;;
44428;SDS011;30134;47.866;-4.222;2023-08-06T11:11:13;10.15;;;2.42;;
44428;SDS011;30134;47.866;-4.222;2023-08-06T11:13:42;7.13;;;2.78;;
44428;SDS011;30134;47.866;-4.222;2023-08-06T11:16:12;6.30;;;2.30;;
44428;SDS011;30134;47.866;-4.222;2023-08-06T11:18:40;8.55;;;2.88;;
44428;SDS011;30134;47.866;-4.222;2023-08-06T11:21:09;6.13;;;2.42;;
44428;SDS011;30134;47.866;-4.222;2023-08-06T11:23:37;11.02;;;2.50;;
44428;SDS011;30134;47.866;-4.222;2023-08-06T11:26:04;9.43;;;2.72;;
44428;SDS011;30134;47.866;-4.222;2023-08-06T11:28:30;7.95;;;2.28;;
44428;SDS011;30134;47.866;-4.222;2023-08-06T11:30:56;7.75;;;2.28;;
44428;SDS011;30134;47.866;-4.222;2023-08-06T11:33:27;9.82;;;2.83;;
44428;SDS011;30134;47.866;-4.222;2023-08-06T11:35:54;8.82;;;2.47;;
44428;SDS011;30134;47.866;-4.222;2023-08-06T11:38:21;9.82;;;2.42;;
44428;SDS011;30134;47.866;-4.222;2023-08-06T11:40:53;11.32;;;2.47;;
44428;SDS011;30134;47.866;-4.222;2023-08-06T11:43:20;10.45;;;3.22;;
44428;SDS011;30134;47.866;-4.222;2023-08-06T11:45:49;9.80;;;2.92;;
44428;SDS011;30134;47.866;-4.222;2023-08-06T11:48:18;7.32;;;2.42;;
44428;SDS011;30134;47.866;-4.222;2023-08-06T11:50:44;11.45;;;2.80;;
44428;SDS011;30134;47.866;-4.222;2023-08-06T11:53:14;11.48;;;2.90;;
44428;SDS011;30134;47.866;-4.222;2023-08-06T11:55:40;10.93;;;2.47;;
44428;SDS011;30134;47.866;-4.222;2023-08-06T11:58:08;7.65;;;2.60;;
44428;SDS011;30134;47.866;-4.222;2023-08-06T12:00:36;7.65;;;2.38;;
44428;SDS011;30134;47.866;-4.222;2023-08-06T12:03:04;9.90;;;3.00;;
44428;SDS011;30134;47.866;-4.222;2023-08-06T12:05:31;7.85;;;2.38;;
44428;SDS011;30134;47.866;-4.222;2023-08-06T12:08:01;7.78;;;2.60;;
44428;SDS011;30134;47.866;-4.222;2023-08-06T12:10:31;8.27;;;2.53;;
44428;SDS011;30134;47.866;-4.222;2023-08-06T12:12:58;13.90;;;2.80;;
44428;SDS011;30134;47.866;-4.222;2023-08-06T12:15:25;5.72;;;2.33;;
44428;SDS011;30134;47.866;-4.222;2023-08-06T12:17:52;5.82;;;2.38;;
44428;SDS011;30134;47.866;-4.222;2023-08-06T12:20:18;6.40;;;2.20;;
44428;SDS011;30134;47.866;-4.222;2023-08-06T12:22:44;10.23;;;2.88;;
44428;SDS011;30134;47.866;-4.222;2023-08-06T12:25:11;7.50;;;2.63;;
44428;SDS011;30134;47.866;-4.222;2023-08-06T12:27:38;6.55;;;2.45;;
44428;SDS011;30134;47.866;-4.222;2023-08-06T12:30:09;8.45;;;2.53;;
44428;SDS011;30134;47.866;-4.222;2023-08-06T12:32:36;6.22;;;2.40;;
44428;SDS011;30134;47.866;-4.222;2023-08-06T12:35:03;7.60;;;2.45;;
44428;SDS011;30134;47.866;-4.222;2023-08-06T12:37:32;8.60;;;2.70;;
44428;SDS011;30134;47.866;-4.222;2023-08-06T12:39:58;6.15;;;2.80;;
44428;SDS011;30134;47.866;-4.222;2023-08-06T12:42:24;6.35;;;2.42;;
44428;SDS011;30134;47.866;-4.222;2023-08-06T12:44:51;8.18;;;2.47;;
44428;SDS011;30134;47.866;-4.222;2023-08-06T12:47:18;7.20;;;2.35;;
44428;SDS011;30134;47.866;-4.222;2023-08-06T12:49:44;8.48;;;2.47;;
44428;SDS011;30134;47.866;-4.222;2023-08-06T12:52:11;6.20;;;1.95;;
44428;SDS011;30134;47.866;-4.222;2023-08-06T12:54:40;11.20;;;2.92;;
44428;SDS011;30134;47.866;-4.222;2023-08-06T12:57:06;8.25;;;2.40;;
44428;SDS011;30134;47.866;-4.222;2023-08-06T12:59:39;5.97;;;2.20;;
44428;SDS011;30134;47.866;-4.222;2023-08-06T13:02:05;7.05;;;2.47;;
44428;SDS011;30134;47.866;-4.222;2023-08-06T13:04:31;6.72;;;2.10;;
44428;SDS011;30134;47.866;-4.222;2023-08-06T13:06:59;9.82;;;2.50;;
44428;SDS011;30134;47.866;-4.222;2023-08-06T13:09:25;6.85;;;2.50;;
44428;SDS011;30134;47.866;-4.222;2023-08-06T13:11:52;8.00;;;2.55;;
44428;SDS011;30134;47.866;-4.222;2023-08-06T13:14:19;6.78;;;2.38;;
44428;SDS011;30134;47.866;-4.222;2023-08-06T13:16:45;6.28;;;2.05;;
44428;SDS011;30134;47.866;-4.222;2023-08-06T13:19:12;8.18;;;2.88;;
44428;SDS011;30134;47.866;-4.222;2023-08-06T13:24:07;7.85;;;2.30;;
44428;SDS011;30134;47.866;-4.222;2023-08-06T13:26:34;9.00;;;2.95;;
44428;SDS011;30134;47.866;-4.222;2023-08-06T13:29:00;4.57;;;2.10;;
44428;SDS011;30134;47.866;-4.222;2023-08-06T13:31:28;8.32;;;2.38;;
44428;SDS011;30134;47.866;-4.222;2023-08-06T13:33:55;9.15;;;2.50;;
44428;SDS011;30134;47.866;-4.222;2023-08-06T13:36:23;7.78;;;2.47;;
44428;SDS011;30134;47.866;-4.222;2023-08-06T13:38:51;9.30;;;2.20;;
44428;SDS011;30134;47.866;-4.222;2023-08-06T13:41:17;9.68;;;2.15;;
44428;SDS011;30134;47.866;-4.222;2023-08-06T13:43:44;12.77;;;2.30;;
44428;SDS011;30134;47.866;-4.222;2023-08-06T13:46:10;8.25;;;2.15;;
44428;SDS011;30134;47.866;-4.222;2023-08-06T13:48:42;12.30;;;2.40;;
44428;SDS011;30134;47.866;-4.222;2023-08-06T13:51:09;6.00;;;2.03;;
44428;SDS011;30134;47.866;-4.222;2023-08-06T13:53:37;11.70;;;2.55;;
44428;SDS011;30134;47.866;-4.222;2023-08-06T13:56:04;19.42;;;3.15;;
44428;SDS011;30134;47.866;-4.222;2023-08-06T13:58:31;29.38;;;4.05;;
44428;SDS011;30134;47.866;-4.222;2023-08-06T14:00:58;31.50;;;3.15;;
44428;SDS011;30134;47.866;-4.222;2023-08-06T14:03:24;21.45;;;3.30;;
44428;SDS011;30134;47.866;-4.222;2023-08-06T14:05:51;11.23;;;2.70;;
44428;SDS011;30134;47.866;-4.222;2023-08-06T14:08:17;10.38;;;2.60;;
44428;SDS011;30134;47.866;-4.222;2023-08-06T14:10:44;11.80;;;2.17;;
44428;SDS011;30134;47.866;-4.222;2023-08-06T14:13:10;14.38;;;2.25;;
44428;SDS011;30134;47.866;-4.222;2023-08-06T14:15:36;10.50;;;2.28;;
44428;SDS011;30134;47.866;-4.222;2023-08-06T14:18:04;11.52;;;2.05;;
44428;SDS011;30134;47.866;-4.222;2023-08-06T14:20:33;8.05;;;2.50;;
44428;SDS011;30134;47.866;-4.222;2023-08-06T14:22:59;9.05;;;2.35;;
44428;SDS011;30134;47.866;-4.222;2023-08-06T14:25:26;7.05;;;2.03;;
44428;SDS011;30134;47.866;-4.222;2023-08-06T14:27:52;7.75;;;2.00;;
44428;SDS011;30134;47.866;-4.222;2023-08-06T14:30:18;7.78;;;1.95;;
44428;SDS011;30134;47.866;-4.222;2023-08-06T14:32:45;6.30;;;1.95;;
44428;SDS011;30134;47.866;-4.222;2023-08-06T14:35:11;8.35;;;2.20;;
44428;SDS011;30134;47.866;-4.222;2023-08-06T14:37:38;7.20;;;2.13;;
44428;SDS011;30134;47.866;-4.222;2023-08-06T14:40:06;5.70;;;2.20;;
44428;SDS011;30134;47.866;-4.222;2023-08-06T14:42:33;8.80;;;2.45;;
44428;SDS011;30134;47.866;-4.222;2023-08-06T14:44:59;9.65;;;2.55;;
44428;SDS011;30134;47.866;-4.222;2023-08-06T14:47:26;6.47;;;2.00;;
44428;SDS011;30134;47.866;-4.222;2023-08-06T14:49:51;12.70;;;2.10;;
44428;SDS011;30134;47.866;-4.222;2023-08-06T14:52:18;10.10;;;2.30;;
44428;SDS011;30134;47.866;-4.222;2023-08-06T14:54:44;5.60;;;2.05;;